Time;durP1;ratioP1;P1;durP2;ratioP2;P2;SDS_P1;SDS_P2;PMS_P1;PMS_P2;Temp;Humidity;BMP_temperature;BMP_pressure;BME280_temperature;BME280_humidity;BME280_pressure;Samples;Min_cycle;Max_cycle;Signal;HPM_P1;HPM_P2
2021/10/09 00:00:09;;;;;;;22.50;17.60;;;14.50;93.70;;;;;;5033461;28;20025;-74
2021/10/09 00:02:34;;;;;;;21.63;17.40;;;14.50;93.70;;;;;;5033774;28;20025;-75
2021/10/09 00:05:01;;;;;;;22.00;17.95;;;14.50;93.80;;;;;;5033434;28;20242;-75
2021/10/09 00:07:26;;;;;;;20.45;17.17;;;14.50;93.70;;;;;;5033522;28;20024;-75
2021/10/09 00:09:57;;;;;;;22.95;18.38;;;14.50;93.70;;;;;;5033210;28;20026;-74
2021/10/09 00:12:23;;;;;;;22.33;18.65;;;14.50;93.70;;;;;;5032347;28;20025;-75
2021/10/09 00:14:48;;;;;;;23.50;18.65;;;14.50;93.60;;;;;;5033359;28;20039;-75
2021/10/09 00:17:16;;;;;;;22.65;17.98;;;14.50;93.60;;;;;;5033312;28;20499;-74
2021/10/09 00:19:41;;;;;;;22.90;18.60;;;14.50;93.50;;;;;;5032770;28;20033;-75
2021/10/09 00:22:07;;;;;;;24.52;19.10;;;14.50;93.50;;;;;;5033216;28;20473;-75
2021/10/09 00:24:32;;;;;;;27.38;19.25;;;14.50;93.50;;;;;;5033160;28;20064;-74
2021/10/09 00:26:58;;;;;;;26.73;20.35;;;14.50;93.50;;;;;;5033248;28;20104;-76
2021/10/09 00:29:23;;;;;;;23.55;19.08;;;14.50;93.50;;;;;;5032925;28;20032;-75
2021/10/09 00:31:49;;;;;;;24.67;18.85;;;14.50;93.40;;;;;;5033217;28;20096;-74
2021/10/09 00:34:14;;;;;;;25.60;18.98;;;14.50;93.50;;;;;;5032824;28;20531;-74
2021/10/09 00:36:40;;;;;;;23.73;19.27;;;14.40;93.40;;;;;;5032944;28;20033;-75
2021/10/09 00:39:05;;;;;;;25.05;19.48;;;14.50;93.40;;;;;;5031293;28;20025;-74
2021/10/09 00:41:31;;;;;;;25.42;20.23;;;14.40;93.40;;;;;;5033003;28;20026;-74
2021/10/09 00:44:14;;;;;;;24.75;20.15;;;14.40;93.30;;;;;;5032850;28;20056;-74
2021/10/09 00:46:41;;;;;;;25.23;20.05;;;14.40;93.30;;;;;;5031505;28;20042;-73
2021/10/09 00:49:08;;;;;;;24.13;19.05;;;14.50;93.40;;;;;;5031190;28;20120;-75
2021/10/09 00:51:34;;;;;;;25.05;20.40;;;14.40;93.30;;;;;;5032791;28;20489;-75
2021/10/09 00:54:01;;;;;;;25.50;19.92;;;14.50;93.40;;;;;;5032757;28;20036;-74
2021/10/09 00:56:33;;;;;;;25.13;20.10;;;14.50;93.40;;;;;;5032668;28;20041;-74
2021/10/09 00:59:00;;;;;;;24.63;20.05;;;14.50;93.40;;;;;;5032264;28;20038;-73
2021/10/09 01:01:26;;;;;;;26.13;19.92;;;14.50;93.40;;;;;;5022168;28;20148;-73
2021/10/09 01:03:53;;;;;;;26.05;19.88;;;14.50;93.50;;;;;;5013186;28;20022;-74
2021/10/09 01:06:20;;;;;;;23.25;18.85;;;14.40;93.40;;;;;;5012047;28;20109;-73
2021/10/09 01:08:45;;;;;;;25.85;19.67;;;14.40;93.40;;;;;;5031006;28;20021;-73
2021/10/09 01:11:11;;;;;;;25.00;19.10;;;14.40;93.40;;;;;;5030568;28;20039;-74
2021/10/09 01:13:36;;;;;;;24.35;20.05;;;14.40;93.40;;;;;;5030501;28;20032;-74
2021/10/09 01:16:02;;;;;;;25.80;20.20;;;14.40;93.40;;;;;;5029627;28;20079;-74
2021/10/09 01:18:27;;;;;;;25.63;19.52;;;14.40;93.30;;;;;;5031401;28;20057;-74
2021/10/09 01:21:01;;;;;;;24.50;19.92;;;14.40;93.30;;;;;;5012125;28;20026;-74
2021/10/09 01:23:27;;;;;;;25.08;19.70;;;14.40;93.20;;;;;;5011569;28;20049;-74
2021/10/09 01:25:53;;;;;;;25.85;20.23;;;14.40;93.30;;;;;;5011724;28;20045;-74
2021/10/09 01:28:19;;;;;;;24.45;19.70;;;14.40;93.30;;;;;;5011427;28;20062;-74
2021/10/09 01:30:45;;;;;;;25.60;20.52;;;14.40;93.30;;;;;;5011289;28;20076;-74
2021/10/09 01:33:12;;;;;;;27.20;21.15;;;14.40;93.30;;;;;;5011680;28;20030;-74
2021/10/09 01:35:46;;;;;;;25.80;19.88;;;14.40;93.40;;;;;;5011624;28;20026;-74
2021/10/09 01:38:11;;;;;;;26.38;20.45;;;14.40;93.30;;;;;;5010958;28;20049;-74
2021/10/09 01:40:37;;;;;;;25.48;20.58;;;14.40;93.40;;;;;;5011308;28;20394;-74
2021/10/09 01:43:02;;;;;;;23.98;19.77;;;14.40;93.40;;;;;;5011153;28;20026;-74
2021/10/09 01:45:28;;;;;;;25.63;20.73;;;14.40;93.40;;;;;;5009718;28;20432;-74
2021/10/09 01:47:53;;;;;;;25.08;20.70;;;14.40;93.40;;;;;;5011596;28;20625;-74
2021/10/09 01:50:19;;;;;;;24.50;20.05;;;14.40;93.40;;;;;;5009887;28;20025;-75
2021/10/09 01:52:44;;;;;;;27.27;21.27;;;14.40;93.40;;;;;;5009791;28;20493;-74
2021/10/09 01:55:10;;;;;;;24.75;20.38;;;14.40;93.30;;;;;;5012093;28;20037;-74
2021/10/09 01:57:35;;;;;;;24.90;20.25;;;14.40;93.40;;;;;;5029590;28;20033;-74
2021/10/09 02:00:01;;;;;;;25.70;21.65;;;14.40;93.40;;;;;;5029045;28;20041;-74
2021/10/09 02:02:26;;;;;;;26.17;20.60;;;14.40;93.40;;;;;;5030939;28;20037;-74
2021/10/09 02:04:52;;;;;;;25.38;19.95;;;14.40;93.50;;;;;;5030741;28;20096;-74
2021/10/09 02:07:21;;;;;;;25.70;20.33;;;14.40;93.40;;;;;;5030574;28;20060;-76
2021/10/09 02:09:46;;;;;;;25.60;20.23;;;14.40;93.40;;;;;;5030662;28;20049;-74
2021/10/09 02:12:12;;;;;;;27.45;21.45;;;14.40;93.40;;;;;;5030773;28;20056;-73
2021/10/09 02:14:50;;;;;;;26.85;21.60;;;14.40;93.50;;;;;;5029429;28;20057;-73
2021/10/09 02:28:04;;;;;;;23.65;19.58;;;14.30;93.40;;;;;;5031034;28;20032;-74
2021/10/09 02:30:30;;;;;;;26.63;21.10;;;14.30;93.30;;;;;;5028911;28;20120;-74
2021/10/09 02:32:56;;;;;;;24.52;20.23;;;14.30;93.30;;;;;;5030446;28;20025;-74
2021/10/09 02:35:21;;;;;;;25.50;20.40;;;14.30;93.40;;;;;;5029735;28;20036;-74
2021/10/09 02:37:47;;;;;;;24.05;19.50;;;14.30;93.30;;;;;;5030096;28;20033;-74
2021/10/09 02:40:13;;;;;;;23.45;19.80;;;14.30;93.40;;;;;;5020823;28;20036;-74
2021/10/09 02:42:38;;;;;;;24.58;19.48;;;14.30;93.40;;;;;;5010489;28;20058;-73
2021/10/09 02:45:04;;;;;;;23.05;19.17;;;14.30;93.30;;;;;;5010423;28;20081;-74
2021/10/09 02:47:30;;;;;;;24.65;19.33;;;14.30;93.30;;;;;;5009456;28;20124;-74
2021/10/09 02:49:55;;;;;;;24.55;19.27;;;14.30;93.30;;;;;;5009856;28;20485;-73
2021/10/09 02:52:21;;;;;;;22.77;19.38;;;14.20;93.50;;;;;;5022766;28;20074;-74
2021/10/09 02:54:46;;;;;;;22.55;19.23;;;14.30;93.20;;;;;;5030279;28;20021;-73
2021/10/09 02:57:12;;;;;;;22.90;18.77;;;14.20;93.20;;;;;;5029141;28;20091;-75
2021/10/09 02:59:37;;;;;;;22.70;18.80;;;14.20;93.20;;;;;;5028200;28;20025;-74
2021/10/09 03:02:03;;;;;;;23.45;19.23;;;14.20;93.20;;;;;;5030292;28;20026;-73
2021/10/09 03:04:28;;;;;;;21.67;18.70;;;14.30;93.20;;;;;;5030343;28;20436;-74
2021/10/09 03:06:54;;;;;;;21.60;18.00;;;14.30;93.30;;;;;;5029906;28;20022;-74
2021/10/09 03:09:20;;;;;;;22.73;19.85;;;14.20;93.20;;;;;;5031203;28;20021;-74
2021/10/09 03:11:45;;;;;;;23.52;19.08;;;14.20;93.10;;;;;;5033946;28;20022;-74
2021/10/09 03:14:11;;;;;;;22.90;18.65;;;14.20;93.20;;;;;;5033332;28;20462;-74
2021/10/09 03:16:36;;;;;;;20.70;17.70;;;14.20;93.30;;;;;;5033864;28;20396;-74
2021/10/09 03:19:02;;;;;;;20.08;17.77;;;14.30;93.30;;;;;;5033481;28;20060;-74
2021/10/09 03:21:28;;;;;;;21.13;17.80;;;14.20;93.20;;;;;;5033167;28;20473;-74
2021/10/09 03:23:53;;;;;;;20.67;18.05;;;14.20;93.20;;;;;;5033689;28;20028;-74
2021/10/09 03:26:19;;;;;;;22.85;18.98;;;14.20;93.20;;;;;;5032443;28;20033;-74
2021/10/09 03:28:44;;;;;;;20.17;17.42;;;14.20;93.30;;;;;;5032776;28;20032;-74
2021/10/09 03:31:10;;;;;;;20.50;18.25;;;14.20;93.30;;;;;;5032476;28;20026;-75
2021/10/09 03:33:35;;;;;;;20.45;17.92;;;14.20;93.20;;;;;;5032746;28;20031;-74
2021/10/09 03:36:01;;;;;;;24.27;18.63;;;14.30;93.30;;;;;;5111421;22;20424;-64
2021/10/09 03:38:27;;;;;;;20.40;17.92;;;14.20;93.30;;;;;;5013291;28;20072;-65
2021/10/09 03:40:59;;;;;;;21.20;17.25;;;14.20;93.30;;;;;;5013894;28;20034;-63
2021/10/09 03:43:26;;;;;;;20.67;17.25;;;14.20;93.20;;;;;;5014016;28;20018;-63
2021/10/09 03:53:55;;;;;;;20.38;17.80;;;14.30;93.20;;;;;;4994717;28;20041;-62
2021/10/09 03:56:20;;;;;;;20.77;17.05;;;14.20;93.30;;;;;;4994204;28;20034;-63
2021/10/09 03:58:46;;;;;;;20.23;17.35;;;14.20;93.30;;;;;;4994060;28;20490;-62
2021/10/09 04:01:12;;;;;;;21.00;17.75;;;14.20;93.30;;;;;;4994157;28;20026;-63
2021/10/09 04:03:37;;;;;;;20.15;17.73;;;14.20;93.20;;;;;;4994226;28;20031;-63
2021/10/09 04:06:03;;;;;;;19.33;16.45;;;14.20;93.30;;;;;;4993908;28;20097;-64
2021/10/09 04:08:28;;;;;;;21.55;17.63;;;14.20;93.30;;;;;;4993835;28;20022;-63
2021/10/09 04:10:54;;;;;;;19.83;17.45;;;14.30;93.20;;;;;;4994028;28;20026;-62
2021/10/09 04:13:19;;;;;;;20.05;17.83;;;14.20;93.20;;;;;;4994001;28;20081;-64
2021/10/09 04:15:45;;;;;;;19.83;16.73;;;14.20;93.10;;;;;;4992581;28;20088;-62
2021/10/09 04:18:10;;;;;;;19.63;16.77;;;14.20;93.20;;;;;;4993972;28;20512;-62
2021/10/09 04:20:37;;;;;;;20.60;17.40;;;14.20;93.20;;;;;;4993357;28;20066;-63
2021/10/09 04:23:04;;;;;;;20.00;17.25;;;14.20;93.10;;;;;;4993982;28;20437;-62
2021/10/09 04:25:30;;;;;;;19.73;17.08;;;14.30;93.20;;;;;;4992453;28;20023;-63
2021/10/09 04:27:55;;;;;;;20.55;17.20;;;14.20;93.20;;;;;;4993823;28;20105;-63
2021/10/09 04:30:21;;;;;;;19.23;17.08;;;14.20;93.20;;;;;;4993310;28;20168;-63
2021/10/09 04:32:46;;;;;;;20.20;17.95;;;14.20;93.20;;;;;;4993558;28;20034;-62
2021/10/09 04:35:12;;;;;;;21.55;17.30;;;14.20;93.20;;;;;;4992090;28;20027;-62
2021/10/09 04:37:38;;;;;;;19.38;16.90;;;14.20;93.20;;;;;;4993639;28;20394;-62
2021/10/09 04:40:05;;;;;;;19.52;17.33;;;14.20;93.20;;;;;;4992061;28;20084;-62
2021/10/09 04:42:30;;;;;;;20.50;17.50;;;14.20;93.20;;;;;;4993551;28;20497;-62
2021/10/09 04:44:56;;;;;;;21.05;16.83;;;14.20;93.30;;;;;;4993359;28;20117;-63
2021/10/09 04:47:21;;;;;;;21.02;17.95;;;14.20;93.30;;;;;;4993272;28;20038;-62
2021/10/09 04:49:47;;;;;;;23.85;18.23;;;14.20;93.50;;;;;;4991084;28;20089;-65
2021/10/09 04:52:13;;;;;;;20.65;17.58;;;14.20;93.30;;;;;;4992727;28;20053;-63
2021/10/09 04:54:38;;;;;;;20.42;17.58;;;14.20;93.30;;;;;;4993339;28;20050;-63
2021/10/09 04:57:04;;;;;;;19.90;16.77;;;14.20;93.30;;;;;;4991737;28;20502;-63
2021/10/09 04:59:29;;;;;;;20.90;17.65;;;14.10;93.30;;;;;;4992136;28;20105;-63
2021/10/09 05:01:54;;;;;;;20.63;17.80;;;14.10;93.20;;;;;;4992931;28;20061;-63
2021/10/09 05:04:20;;;;;;;21.10;17.27;;;14.20;93.30;;;;;;4992935;28;20072;-63
2021/10/09 05:06:45;;;;;;;19.73;17.20;;;14.20;93.30;;;;;;4991677;28;20481;-63
2021/10/09 05:09:11;;;;;;;21.48;17.38;;;14.20;93.30;;;;;;4992785;28;20026;-63
2021/10/09 05:11:37;;;;;;;19.02;16.42;;;14.10;93.30;;;;;;4992845;28;20065;-63
2021/10/09 05:14:02;;;;;;;20.30;16.70;;;14.10;93.30;;;;;;4992915;28;20022;-64
2021/10/09 05:16:29;;;;;;;19.52;17.42;;;14.20;93.20;;;;;;4992717;28;20030;-62
2021/10/09 05:18:54;;;;;;;22.15;17.23;;;14.20;93.20;;;;;;4992469;28;20505;-64
2021/10/09 05:21:20;;;;;;;19.73;17.10;;;14.10;93.20;;;;;;4992755;28;20036;-63
2021/10/09 05:23:45;;;;;;;19.95;16.85;;;14.20;93.20;;;;;;4992756;28;20109;-64
2021/10/09 05:26:11;;;;;;;20.13;16.95;;;14.10;93.20;;;;;;4992593;28;20019;-64
2021/10/09 05:31:08;;;;;;;21.30;17.27;;;14.10;93.30;;;;;;4992626;28;20054;-63
2021/10/09 05:33:37;;;;;;;20.65;17.52;;;14.20;93.20;;;;;;4992009;28;20406;-63
2021/10/09 05:36:05;;;;;;;20.73;17.67;;;14.20;93.20;;;;;;4992356;28;20040;-63
2021/10/09 05:38:31;;;;;;;21.63;17.48;;;14.10;93.40;;;;;;4992270;28;20026;-63
2021/10/09 05:40:57;;;;;;;20.85;17.40;;;14.10;93.30;;;;;;4992382;28;20030;-63
2021/10/09 05:43:23;;;;;;;20.05;16.30;;;14.20;93.20;;;;;;4992524;28;20101;-63
2021/10/09 05:45:49;;;;;;;20.83;16.83;;;14.10;93.10;;;;;;4992320;28;20014;-63
2021/10/09 05:48:14;;;;;;;20.45;17.63;;;14.20;93.20;;;;;;4992178;28;20049;-63
2021/10/09 05:51:27;;;;;;;20.33;16.85;;;14.20;93.20;;;;;;4990984;28;20088;-63
2021/10/09 05:58:49;;;;;;;21.20;17.17;;;14.10;93.10;;;;;;4991957;28;20062;-62
2021/10/09 06:26:04;;;;;;;20.90;16.95;;;14.20;93.20;;;;;;4983058;28;20401;-64
2021/10/09 07:00:39;;;;;;;19.98;17.15;;;14.10;93.10;;;;;;4995381;28;20174;-64
2021/10/09 07:03:05;;;;;;;23.88;18.30;;;14.10;92.90;;;;;;4995415;28;20054;-62
2021/10/09 07:05:33;;;;;;;25.25;18.95;;;14.10;92.90;;;;;;4995390;28;20026;-63
2021/10/09 07:08:05;;;;;;;22.60;18.20;;;14.10;92.90;;;;;;4994080;28;20113;-62
2021/10/09 07:10:31;;;;;;;21.23;17.33;;;14.10;92.90;;;;;;4995145;28;20045;-63
2021/10/09 07:12:56;;;;;;;22.95;18.30;;;14.10;92.80;;;;;;4995229;28;20050;-63
2021/10/09 07:15:22;;;;;;;22.75;18.48;;;14.10;92.80;;;;;;4995368;28;20402;-63
2021/10/09 07:17:47;;;;;;;22.48;18.13;;;14.10;92.80;;;;;;4989811;28;20027;-62
2021/10/09 07:20:14;;;;;;;23.33;18.02;;;14.10;92.90;;;;;;4975425;28;20034;-62
2021/10/09 07:22:39;;;;;;;22.13;18.10;;;14.10;92.90;;;;;;4975645;28;20061;-62
2021/10/09 07:25:06;;;;;;;24.00;18.67;;;14.10;93.00;;;;;;4975592;28;20050;-63
2021/10/09 07:27:32;;;;;;;21.67;18.45;;;14.20;93.00;;;;;;4975472;28;20027;-62
2021/10/09 07:29:58;;;;;;;44.63;19.92;;;14.10;93.00;;;;;;4988204;28;20026;-63
2021/10/09 07:32:25;;;;;;;28.40;19.48;;;14.00;92.30;;;;;;4994500;28;20117;-63
2021/10/09 07:34:51;;;;;;;27.30;19.73;;;13.90;92.40;;;;;;4992947;28;20026;-62
2021/10/09 07:37:16;;;;;;;25.83;19.65;;;14.00;92.60;;;;;;4993201;28;20042;-65
2021/10/09 07:39:42;;;;;;;27.90;19.55;;;13.90;92.40;;;;;;4992669;28;20394;-64
2021/10/09 07:42:07;;;;;;;25.95;20.05;;;13.90;92.70;;;;;;4993047;28;20019;-65
2021/10/09 07:44:33;;;;;;;29.20;20.58;;;13.90;92.80;;;;;;4992918;28;20014;-63
2021/10/09 07:46:59;;;;;;;29.05;20.27;;;13.90;92.70;;;;;;4992608;28;20490;-63
2021/10/09 07:49:24;;;;;;;27.33;19.77;;;13.90;92.90;;;;;;4993003;28;20019;-64
2021/10/09 07:51:50;;;;;;;27.73;19.67;;;14.00;92.90;;;;;;4985616;28;20033;-63
2021/10/09 07:54:16;;;;;;;26.58;19.20;;;14.00;93.20;;;;;;4985156;28;20022;-65
2021/10/09 07:56:42;;;;;;;28.08;20.83;;;14.10;93.00;;;;;;4989765;28;20477;-65
2021/10/09 07:59:07;;;;;;;34.20;22.50;;;14.10;93.10;;;;;;4994057;28;20034;-63
2021/10/09 08:01:33;;;;;;;29.33;21.02;;;14.00;91.30;;;;;;4993405;28;20045;-63
2021/10/09 08:03:59;;;;;;;29.63;22.15;;;13.90;92.00;;;;;;4993765;28;20081;-64
2021/10/09 08:06:25;;;;;;;29.80;21.17;;;13.90;91.80;;;;;;4994065;28;20046;-64
2021/10/09 08:08:51;;;;;;;25.13;19.95;;;13.90;91.10;;;;;;4993851;28;20061;-63
2021/10/09 08:11:16;;;;;;;27.15;20.15;;;13.90;92.10;;;;;;4994168;28;20041;-63
2021/10/09 08:13:43;;;;;;;40.10;22.00;;;14.00;92.30;;;;;;4994073;28;20612;-63
2021/10/09 08:16:08;;;;;;;29.95;20.52;;;14.00;90.80;;;;;;4992963;28;20113;-62
2021/10/09 08:18:34;;;;;;;27.67;20.27;;;14.00;92.30;;;;;;4992450;28;20057;-62
2021/10/09 08:21:03;;;;;;;32.90;21.10;;;14.00;92.60;;;;;;4993864;28;20081;-63
2021/10/09 08:23:35;;;;;;;32.22;20.67;;;14.10;92.80;;;;;;4994019;28;20019;-63
2021/10/09 08:26:23;;;;;;;25.90;20.00;;;14.10;92.70;;;;;;4992484;28;20029;-63
2021/10/09 08:39:42;;;;;;;29.08;21.35;;;14.20;92.90;;;;;;4993248;28;20437;-63
2021/10/09 08:42:09;;;;;;;29.13;20.95;;;14.20;92.90;;;;;;4993502;28;20030;-63
2021/10/09 08:44:35;;;;;;;27.00;20.27;;;14.10;92.90;;;;;;4993426;28;20386;-63
2021/10/09 08:47:01;;;;;;;26.63;20.83;;;14.20;92.90;;;;;;4993719;28;20101;-63
2021/10/09 08:49:26;;;;;;;27.15;21.55;;;14.20;92.80;;;;;;4992991;28;20156;-65
2021/10/09 08:51:52;;;;;;;27.10;19.38;;;14.20;92.90;;;;;;4992165;28;20033;-64
2021/10/09 08:54:18;;;;;;;25.92;20.10;;;14.20;92.90;;;;;;4992053;28;20026;-64
2021/10/09 08:56:47;;;;;;;27.92;21.15;;;14.20;92.90;;;;;;4993281;28;20023;-64
2021/10/09 08:59:29;;;;;;;27.67;20.70;;;14.20;92.90;;;;;;4991744;28;20065;-63
2021/10/09 09:02:02;;;;;;;25.65;20.38;;;14.20;93.00;;;;;;4993184;28;20030;-64
2021/10/09 09:07:35;;;;;;;28.20;21.35;;;14.20;92.90;;;;;;4992385;28;20444;-64
2021/10/09 09:40:43;;;;;;;29.10;21.83;;;13.90;90.60;;;;;;4991280;28;20037;-65
2021/10/09 09:43:10;;;;;;;27.90;20.50;;;13.60;91.00;;;;;;4992444;28;20031;-63
2021/10/09 09:45:37;;;;;;;27.60;20.67;;;13.70;92.20;;;;;;4991922;28;20023;-63
2021/10/09 09:48:04;;;;;;;29.55;21.00;;;13.90;92.80;;;;;;4992493;28;20029;-63
2021/10/09 09:50:31;;;;;;;34.20;20.90;;;14.00;92.70;;;;;;4992241;28;20053;-63
2021/10/09 09:53:00;;;;;;;30.30;21.20;;;14.00;90.20;;;;;;4992244;28;20033;-64
2021/10/09 09:55:26;;;;;;;27.65;21.63;;;13.70;90.70;;;;;;4991645;28;20030;-64
2021/10/09 09:57:52;;;;;;;33.58;20.73;;;13.70;91.40;;;;;;4989963;28;20113;-64
2021/10/09 10:00:18;;;;;;;33.65;21.33;;;13.70;91.50;;;;;;4974578;28;20030;-65
2021/10/09 10:02:51;;;;;;;32.63;21.88;;;13.80;91.10;;;;;;4974843;28;20030;-64
2021/10/09 10:05:18;;;;;;;29.55;21.15;;;13.70;90.70;;;;;;4990683;28;20019;-64
2021/10/09 10:07:44;;;;;;;28.60;21.08;;;13.70;90.90;;;;;;4991660;28;20026;-63
2021/10/09 10:10:10;;;;;;;30.65;20.67;;;13.50;90.80;;;;;;4990414;28;20034;-64
2021/10/09 10:12:38;;;;;;;29.60;20.52;;;13.50;90.80;;;;;;4990000;28;20037;-63
2021/10/09 10:15:15;;;;;;;27.75;21.38;;;13.40;90.20;;;;;;5002724;28;20037;-64
2021/10/09 10:17:46;;;;;;;31.02;20.02;;;13.40;90.40;;;;;;4988521;28;20437;-66
2021/10/09 10:20:13;;;;;;;31.23;20.85;;;13.40;90.40;;;;;;5001700;28;20026;-64
2021/10/09 10:22:40;;;;;;;27.85;20.02;;;13.50;90.70;;;;;;4994885;28;20113;-65
2021/10/09 10:25:23;;;;;;;26.15;20.00;;;13.40;90.40;;;;;;5002439;28;20109;-65
2021/10/09 10:28:17;;;;;;;27.42;19.95;;;13.30;90.00;;;;;;5006728;28;20596;-66
2021/10/09 10:31:01;;;;;;;33.45;19.52;;;13.40;91.60;;;;;;4996117;28;20022;-64
2021/10/09 10:33:30;;;;;;;27.40;19.45;;;14.00;90.00;;;;;;4992226;28;20050;-65
2021/10/09 10:35:56;;;;;;;28.75;19.85;;;14.30;87.40;;;;;;4995466;28;20109;-65
2021/10/09 10:38:41;;;;;;;34.00;19.77;;;14.40;86.10;;;;;;5026736;28;20109;-64
2021/10/09 10:41:06;;;;;;;27.70;19.27;;;14.40;85.90;;;;;;4987131;28;20030;-64
2021/10/09 10:46:26;;;;;;;27.33;19.48;;;14.20;86.40;;;;;;5010516;28;20025;-64
2021/10/09 10:48:59;;;;;;;29.27;20.40;;;14.00;86.90;;;;;;4988839;28;20113;-65
2021/10/09 10:51:53;;;;;;;26.20;19.05;;;13.80;87.60;;;;;;5013796;28;20014;-65
2021/10/09 10:57:02;;;;;;;26.05;19.35;;;13.70;89.20;;;;;;5014290;28;20022;-65
2021/10/09 11:00:05;;;;;;;26.70;19.30;;;13.70;89.00;;;;;;5013922;28;20022;-65
2021/10/09 11:02:38;;;;;;;27.15;19.38;;;13.70;88.60;;;;;;4997033;28;20530;-65
2021/10/09 11:05:05;;;;;;;24.33;18.23;;;13.70;89.00;;;;;;4992588;28;20034;-65
2021/10/09 11:07:31;;;;;;;28.67;17.95;;;13.80;88.20;;;;;;4994290;28;20371;-65
2021/10/09 11:10:11;;;;;;;24.25;17.65;;;14.00;89.10;;;;;;4994208;28;20042;-66
2021/10/09 11:12:48;;;;;;;26.48;17.80;;;14.30;86.00;;;;;;4989290;28;20034;-64
2021/10/09 11:15:26;;;;;;;27.10;17.45;;;14.50;86.00;;;;;;4994355;28;20030;-65
2021/10/09 11:17:55;;;;;;;23.25;16.45;;;14.50;87.30;;;;;;4994541;28;20393;-65
2021/10/09 11:20:28;;;;;;;26.67;16.67;;;14.60;84.40;;;;;;4993047;28;20117;-64
2021/10/09 11:22:56;;;;;;;23.70;17.40;;;14.70;83.80;;;;;;4993335;28;20109;-65
2021/10/09 11:25:27;;;;;;;27.58;18.48;;;14.80;83.90;;;;;;4994933;28;20042;-67
2021/10/09 11:27:53;;;;;;;28.58;17.90;;;14.60;86.10;;;;;;4994653;28;20382;-65
2021/10/09 11:30:19;;;;;;;23.23;17.98;;;14.60;87.20;;;;;;4993818;28;20501;-64
2021/10/09 11:32:45;;;;;;;24.65;17.08;;;14.50;88.10;;;;;;4994786;28;20085;-64
2021/10/09 11:35:13;;;;;;;26.15;17.63;;;14.50;88.00;;;;;;4994481;28;20030;-64
2021/10/09 11:37:51;;;;;;;24.50;17.67;;;14.50;89.00;;;;;;4994871;28;20027;-65
2021/10/09 11:41:01;;;;;;;22.10;17.20;;;14.40;89.40;;;;;;4993807;28;20490;-66
2021/10/09 11:46:29;;;;;;;22.58;16.48;;;14.40;90.20;;;;;;4994837;28;20018;-64
2021/10/09 11:54:46;;;;;;;24.83;15.98;;;14.40;90.10;;;;;;4994428;28;20547;-65
2021/10/09 11:57:12;;;;;;;24.05;16.45;;;14.50;90.30;;;;;;4994407;28;20029;-64
2021/10/09 11:59:39;;;;;;;25.48;15.88;;;14.50;90.30;;;;;;4993630;28;20034;-64
2021/10/09 12:02:06;;;;;;;23.25;15.45;;;14.50;90.30;;;;;;4993449;28;20053;-65
2021/10/09 12:04:32;;;;;;;22.70;15.50;;;14.50;90.30;;;;;;4992179;28;20030;-64
2021/10/09 12:09:42;;;;;;;27.50;15.32;;;14.50;90.40;;;;;;4993445;28;20034;-65
2021/10/09 12:12:31;;;;;;;23.10;15.05;;;14.60;90.60;;;;;;4991822;28;20028;-63
2021/10/09 12:14:57;;;;;;;24.75;15.68;;;14.50;90.50;;;;;;4993403;28;20031;-63
2021/10/09 12:17:38;;;;;;;25.13;15.55;;;14.60;90.70;;;;;;4994242;28;20103;-64
2021/10/09 12:20:07;;;;;;;20.42;14.18;;;14.60;90.70;;;;;;4992182;28;20121;-64
2021/10/09 12:22:52;;;;;;;20.40;14.65;;;14.60;90.70;;;;;;4993943;28;20375;-64
2021/10/09 12:25:27;;;;;;;22.05;14.52;;;14.60;91.00;;;;;;4993772;28;20018;-64
2021/10/09 12:28:01;;;;;;;22.98;14.10;;;14.60;90.90;;;;;;4993879;28;20097;-64
2021/10/09 12:30:40;;;;;;;22.10;14.77;;;14.60;90.90;;;;;;4993612;28;20109;-64
2021/10/09 12:33:05;;;;;;;19.98;14.30;;;14.60;91.00;;;;;;4993789;28;20046;-64
2021/10/09 12:35:33;;;;;;;19.73;13.82;;;14.60;90.80;;;;;;4993428;28;20038;-64
2021/10/09 12:38:10;;;;;;;19.38;14.00;;;14.60;91.10;;;;;;4993203;28;20027;-64
2021/10/09 12:40:49;;;;;;;20.40;13.35;;;14.60;91.10;;;;;;4983089;28;20034;-63
2021/10/09 12:43:19;;;;;;;21.38;13.50;;;14.60;90.70;;;;;;4987115;28;20374;-64
2021/10/09 12:45:45;;;;;;;19.55;13.52;;;14.60;90.70;;;;;;4984209;28;20014;-63
2021/10/09 12:48:11;;;;;;;20.38;12.88;;;14.60;90.60;;;;;;4981578;28;20052;-63
2021/10/09 12:50:39;;;;;;;19.77;13.25;;;14.70;90.50;;;;;;4987601;28;20490;-64
2021/10/09 12:53:05;;;;;;;19.75;13.15;;;14.70;90.60;;;;;;4991078;28;20026;-64
2021/10/09 12:55:35;;;;;;;18.42;12.13;;;14.70;90.40;;;;;;4993019;28;20509;-64
2021/10/09 12:58:08;;;;;;;21.35;12.50;;;14.70;90.60;;;;;;4992648;28;20070;-64
2021/10/09 13:00:35;;;;;;;17.27;12.27;;;14.70;90.60;;;;;;4993029;28;20022;-65
2021/10/09 13:03:01;;;;;;;18.67;12.73;;;14.60;90.60;;;;;;4993054;28;20022;-64
2021/10/09 13:05:29;;;;;;;23.52;13.73;;;14.70;90.90;;;;;;4993129;28;20026;-63
2021/10/09 13:07:57;;;;;;;22.40;13.55;;;14.70;90.80;;;;;;4991426;28;20026;-64
2021/10/09 13:10:24;;;;;;;23.35;14.75;;;14.70;90.40;;;;;;4987573;28;20034;-64
2021/10/09 13:12:50;;;;;;;21.10;13.75;;;14.70;90.20;;;;;;4989202;28;20102;-65
2021/10/09 13:15:20;;;;;;;20.65;14.52;;;14.70;90.10;;;;;;4990922;28;20118;-64
2021/10/09 13:17:49;;;;;;;27.05;15.20;;;14.70;90.10;;;;;;4991757;28;20081;-64
2021/10/09 13:20:16;;;;;;;24.45;15.40;;;14.80;88.70;;;;;;4990849;28;20031;-64
2021/10/09 13:22:43;;;;;;;38.50;16.55;;;14.80;89.50;;;;;;4991522;28;20445;-65
2021/10/09 13:25:08;;;;;;;37.45;16.90;;;14.70;88.20;;;;;;4992396;28;20035;-66
2021/10/09 13:27:34;;;;;;;46.85;16.85;;;14.80;86.90;;;;;;4990908;28;20493;-67
2021/10/09 13:30:00;;;;;;;25.65;15.15;;;14.80;87.10;;;;;;4991588;28;20106;-67
2021/10/09 13:32:26;;;;;;;214.70;30.38;;;14.80;87.60;;;;;;4989681;28;20082;-68
2021/10/09 13:34:51;;;;;;;40.28;16.27;;;14.90;87.90;;;;;;4991705;28;20041;-67
2021/10/09 13:37:21;;;;;;;34.95;15.32;;;15.00;88.30;;;;;;4992330;28;20513;-66
2021/10/09 13:39:52;;;;;;;33.95;14.98;;;15.00;89.10;;;;;;4991843;28;20054;-66
2021/10/09 13:42:17;;;;;;;35.42;14.85;;;15.00;89.80;;;;;;4992506;28;20630;-66
2021/10/09 13:44:43;;;;;;;31.33;14.70;;;15.00;90.00;;;;;;4990303;28;20066;-65
2021/10/09 13:47:10;;;;;;;45.38;15.10;;;15.00;90.00;;;;;;4992032;28;20061;-65
2021/10/09 13:49:36;;;;;;;40.72;14.98;;;14.90;89.90;;;;;;4991545;28;20037;-66
2021/10/09 13:52:02;;;;;;;32.78;15.30;;;14.90;90.00;;;;;;4991702;28;20030;-66
2021/10/09 13:54:27;;;;;;;34.67;14.48;;;15.00;90.10;;;;;;4990782;28;20030;-65
2021/10/09 13:56:53;;;;;;;33.60;14.18;;;14.90;89.00;;;;;;4990450;28;20046;-67
2021/10/09 13:59:18;;;;;;;33.22;15.15;;;15.00;88.50;;;;;;5077530;23;20078;-71
2021/10/09 14:01:44;;;;;;;30.05;15.02;;;15.00;89.40;;;;;;5011617;28;20026;-70
2021/10/09 14:04:09;;;;;;;29.63;14.93;;;15.00;89.50;;;;;;5010826;28;20026;-71
2021/10/09 14:06:35;;;;;;;31.67;14.52;;;15.00;89.50;;;;;;4993754;28;20068;-70
2021/10/09 14:09:02;;;;;;;30.00;13.73;;;15.00;89.50;;;;;;5011515;28;20018;-70
2021/10/09 14:11:27;;;;;;;30.02;13.38;;;15.00;89.50;;;;;;5011803;28;20037;-73
2021/10/09 14:13:53;;;;;;;32.55;14.23;;;15.00;89.50;;;;;;5011839;28;20030;-70
2021/10/09 14:16:18;;;;;;;26.83;13.82;;;15.00;89.50;;;;;;4992770;28;20034;-69
2021/10/09 14:18:44;;;;;;;27.38;13.75;;;15.00;89.60;;;;;;5010667;28;20036;-71
2021/10/09 14:21:09;;;;;;;25.90;13.35;;;15.00;89.60;;;;;;5011669;28;20101;-71
2021/10/09 14:23:37;;;;;;;24.83;13.88;;;15.00;89.60;;;;;;5011024;28;20030;-71
2021/10/09 14:26:02;;;;;;;24.00;12.20;;;15.00;89.60;;;;;;5011573;28;20053;-70
2021/10/09 14:28:28;;;;;;;25.55;13.20;;;15.00;89.80;;;;;;4993771;28;20046;-72
2021/10/09 14:30:53;;;;;;;25.88;13.48;;;15.00;89.80;;;;;;5026344;28;20025;-70
2021/10/09 14:33:19;;;;;;;24.75;12.23;;;15.00;89.80;;;;;;5011439;28;20489;-71
2021/10/09 14:35:45;;;;;;;25.83;13.23;;;15.00;90.00;;;;;;5011717;28;20037;-72
2021/10/09 14:38:13;;;;;;;25.85;13.45;;;15.00;90.00;;;;;;5011212;28;20029;-68
2021/10/09 14:40:39;;;;;;;23.70;12.38;;;15.00;89.90;;;;;;5011507;28;20030;-71
2021/10/09 14:43:04;;;;;;;20.30;11.68;;;15.10;90.00;;;;;;5010293;28;20050;-71
2021/10/09 14:45:30;;;;;;;23.17;12.48;;;15.10;90.00;;;;;;5011541;28;20034;-71
2021/10/09 14:48:09;;;;;;;20.20;12.50;;;15.10;90.00;;;;;;5011391;28;20037;-71
2021/10/09 14:53:19;;;;;;;24.48;12.30;;;15.10;90.10;;;;;;5018056;28;20033;-71
2021/10/09 14:56:04;;;;;;;21.45;12.13;;;15.10;90.10;;;;;;4993904;28;20030;-71